Time;durP1;ratioP1;P1;durP2;ratioP2;P2;SDS_P1;SDS_P2;PMS_P1;PMS_P2;Temp;Humidity;BMP_temperature;BMP_pressure;BME280_temperature;BME280_humidity;BME280_pressure;Samples;Min_cycle;Max_cycle;Signal;HPM_P1;HPM_P2
2022/04/07 00:00:31;;;;;;;;;;;9.30;99.90;;;;;;4929592;29;19926;-71
2022/04/07 00:03:02;;;;;;;;;;;9.30;99.90;;;;;;4934067;29;19927;-71
2022/04/07 00:05:42;;;;;;;;;;;9.20;99.90;;;;;;4947224;29;19923;-71
2022/04/07 00:08:14;;;;;;;;;;;9.20;99.90;;;;;;4933614;29;19923;-71
2022/04/07 00:10:48;;;;;;;;;;;9.20;99.90;;;;;;4930953;29;20386;-71
2022/04/07 00:13:14;;;;;;;;;;;9.30;99.90;;;;;;4935242;29;19922;-71
2022/04/07 00:15:46;;;;;;;;;;;9.30;99.90;;;;;;4937766;28;19934;-71
2022/04/07 00:18:17;;;;;;;;;;;9.30;99.90;;;;;;4932703;29;19923;-71
2022/04/07 00:20:44;;;;;;;;;;;9.30;99.90;;;;;;4934043;29;20393;-72
2022/04/07 00:23:16;;;;;;;;;;;9.30;99.90;;;;;;4912823;29;20013;-71
2022/04/07 00:25:47;;;;;;;;;;;9.40;99.90;;;;;;4942709;28;19957;-71
2022/04/07 00:28:19;;;;;;;;;;;9.40;99.90;;;;;;4932854;29;20301;-71
2022/04/07 00:30:46;;;;;;;;;;;9.50;99.90;;;;;;4931896;29;19927;-71
2022/04/07 00:33:18;;;;;;;;;;;9.50;99.90;;;;;;4941028;29;20421;-71
2022/04/07 00:35:49;;;;;;;;;;;9.50;99.90;;;;;;4936891;29;19954;-71
2022/04/07 00:38:16;;;;;;;;;;;9.50;99.90;;;;;;4933813;29;20010;-71
2022/04/07 00:40:48;;;;;;;;;;;9.60;99.90;;;;;;4932272;29;19923;-72
2022/04/07 00:43:32;;;;;;;;;;;9.60;99.90;;;;;;4943720;28;19930;-71
2022/04/07 00:46:04;;;;;;;;;;;9.60;99.90;;;;;;4937568;29;20021;-71
2022/04/07 00:48:37;;;;;;;;;;;9.60;99.90;;;;;;4936172;29;19922;-71
2022/04/07 00:51:08;;;;;;;;;;;9.60;99.90;;;;;;4936504;29;19931;-71
2022/04/07 00:53:35;;;;;;;;;;;9.60;99.90;;;;;;4938026;29;20305;-71
2022/04/07 00:56:07;;;;;;;;;;;9.70;99.90;;;;;;4943524;29;20297;-71
2022/04/07 00:58:35;;;;;;;;;;;9.70;99.90;;;;;;4936293;29;20582;-71
2022/04/07 01:01:01;;;;;;;;;;;9.60;99.90;;;;;;4935131;29;20290;-71
2022/04/07 01:03:33;;;;;;;;;;;9.60;99.90;;;;;;4932639;29;19923;-71
2022/04/07 01:06:01;;;;;;;;;;;9.60;99.90;;;;;;4939793;29;19945;-71
2022/04/07 01:08:32;;;;;;;;;;;9.60;99.90;;;;;;4917421;29;19923;-71
2022/04/07 01:11:04;;;;;;;;;;;9.60;99.90;;;;;;4919485;29;19945;-71
2022/04/07 01:13:49;;;;;;;;;;;9.60;99.90;;;;;;4942385;29;19926;-71
2022/04/07 01:16:17;;;;;;;;;;;9.60;99.90;;;;;;4939187;29;19929;-71
2022/04/07 01:18:44;;;;;;;;;;;9.60;99.90;;;;;;4918986;29;20314;-71
2022/04/07 01:21:17;;;;;;;;;;;9.50;99.90;;;;;;4931564;29;20297;-71
2022/04/07 01:23:53;;;;;;;;;;;9.50;99.90;;;;;;4920046;29;19929;-71
2022/04/07 01:26:25;;;;;;;;;;;9.50;99.90;;;;;;4950148;29;19962;-71
2022/04/07 01:28:52;;;;;;;;;;;9.50;99.90;;;;;;4918810;29;20373;-71
2022/04/07 01:31:23;;;;;;;;;;;9.40;99.90;;;;;;4932108;29;19954;-71
2022/04/07 01:33:50;;;;;;;;;;;9.40;99.90;;;;;;4931732;29;19923;-71
2022/04/07 01:36:22;;;;;;;;;;;9.50;99.90;;;;;;4938241;29;19927;-71
2022/04/07 01:38:48;;;;;;;;;;;9.50;99.90;;;;;;4916688;29;19923;-71
2022/04/07 01:41:21;;;;;;;;;;;9.50;99.90;;;;;;4919089;29;20397;-71
2022/04/07 01:43:55;;;;;;;;;;;9.50;99.90;;;;;;4935569;29;20297;-71
2022/04/07 01:46:26;;;;;;;;;;;9.40;99.90;;;;;;4931094;29;19923;-71
2022/04/07 01:48:54;;;;;;;;;;;9.40;99.90;;;;;;4915094;29;20355;-71
2022/04/07 01:51:26;;;;;;;;;;;9.40;99.90;;;;;;4915937;29;19922;-71
2022/04/07 01:53:58;;;;;;;;;;;9.40;99.90;;;;;;4937735;29;19929;-71
2022/04/07 01:56:25;;;;;;;;;;;9.40;99.90;;;;;;4941469;29;19962;-71
2022/04/07 01:58:57;;;;;;;;;;;9.30;99.90;;;;;;4934309;29;20449;-71
2022/04/07 02:01:23;;;;;;;;;;;9.40;99.90;;;;;;4915759;29;19922;-72
2022/04/07 02:03:55;;;;;;;;;;;9.40;99.90;;;;;;4932148;29;19926;-71
2022/04/07 02:06:25;;;;;;;;;;;9.40;99.90;;;;;;4933679;29;20298;-71
2022/04/07 02:08:57;;;;;;;;;;;9.40;99.90;;;;;;4918554;29;19923;-71
2022/04/07 02:11:30;;;;;;;;;;;9.30;99.90;;;;;;4917626;29;20374;-71
2022/04/07 02:13:57;;;;;;;;;;;9.30;99.90;;;;;;4938641;29;19930;-71
2022/04/07 02:16:30;;;;;;;;;;;9.30;99.90;;;;;;4930126;29;19934;-71
2022/04/07 02:19:01;;;;;;;;;;;9.30;99.90;;;;;;4921368;29;19922;-71
2022/04/07 02:21:33;;;;;;;;;;;9.30;99.90;;;;;;4932032;29;19927;-71
2022/04/07 02:24:05;;;;;;;;;;;9.30;99.90;;;;;;4920388;29;19927;-71
2022/04/07 02:26:37;;;;;;;;;;;9.30;99.90;;;;;;4934752;29;19929;-71
2022/04/07 02:29:08;;;;;;;;;;;9.40;99.90;;;;;;4934685;29;19977;-71
2022/04/07 02:31:40;;;;;;;;;;;9.40;99.90;;;;;;4925382;29;20398;-71
2022/04/07 02:34:07;;;;;;;;;;;9.40;99.90;;;;;;4929357;29;19934;-71
2022/04/07 02:36:33;;;;;;;;;;;9.40;99.90;;;;;;4918547;29;19922;-71
2022/04/07 02:39:05;;;;;;;;;;;9.30;99.90;;;;;;4934641;29;19927;-71
2022/04/07 02:41:36;;;;;;;;;;;9.30;99.90;;;;;;4919522;29;19973;-71
2022/04/07 02:44:03;;;;;;;;;;;9.20;99.90;;;;;;4935272;29;19923;-71
2022/04/07 02:46:35;;;;;;;;;;;9.20;99.90;;;;;;4933287;29;20271;-71
2022/04/07 02:49:02;;;;;;;;;;;9.10;99.90;;;;;;4929830;29;19923;-71
2022/04/07 02:51:31;;;;;;;;;;;9.00;99.90;;;;;;4929381;29;19923;-71
2022/04/07 02:54:02;;;;;;;;;;;9.00;99.90;;;;;;4926919;29;19926;-71
2022/04/07 02:56:29;;;;;;;;;;;9.00;99.90;;;;;;4935641;29;19937;-71
2022/04/07 02:58:56;;;;;;;;;;;8.90;99.90;;;;;;4914037;29;20374;-71
2022/04/07 03:01:28;;;;;;;;;;;9.00;99.90;;;;;;4905141;29;19929;-71
2022/04/07 03:03:55;;;;;;;;;;;8.90;99.90;;;;;;4919864;29;20017;-71
2022/04/07 03:06:29;;;;;;;;;;;8.80;99.90;;;;;;4913872;29;19923;-71
2022/04/07 03:09:01;;;;;;;;;;;8.80;99.90;;;;;;4917666;29;19929;-71
2022/04/07 03:11:32;;;;;;;;;;;8.80;99.90;;;;;;4930966;29;19929;-71
2022/04/07 03:14:04;;;;;;;;;;;8.80;99.90;;;;;;4947922;29;19926;-71
2022/04/07 03:16:35;;;;;;;;;;;8.80;99.90;;;;;;4929494;29;19923;-71
2022/04/07 03:19:07;;;;;;;;;;;8.70;99.90;;;;;;4915263;29;19930;-71
2022/04/07 03:21:34;;;;;;;;;;;8.70;99.90;;;;;;4903993;29;20017;-70
2022/04/07 03:24:00;;;;;;;;;;;8.70;99.90;;;;;;4932510;29;19930;-71
2022/04/07 03:26:32;;;;;;;;;;;8.70;99.90;;;;;;4917665;29;20386;-70
2022/04/07 03:29:04;;;;;;;;;;;8.60;99.90;;;;;;4899111;29;20375;-71
2022/04/07 03:31:30;;;;;;;;;;;8.70;99.90;;;;;;4916745;29;19923;-71
2022/04/07 03:34:02;;;;;;;;;;;8.70;99.90;;;;;;4934775;29;20450;-71
2022/04/07 03:36:34;;;;;;;;;;;8.70;99.90;;;;;;4932564;29;20396;-71
2022/04/07 03:39:05;;;;;;;;;;;8.70;99.90;;;;;;4929938;29;20584;-71
2022/04/07 03:41:37;;;;;;;;;;;8.70;99.90;;;;;;4922912;29;19958;-71
2022/04/07 03:44:10;;;;;;;;;;;8.70;99.90;;;;;;4942708;29;19932;-71
2022/04/07 03:46:42;;;;;;;;;;;8.70;99.90;;;;;;4936947;29;19922;-71
2022/04/07 03:49:08;;;;;;;;;;;8.70;99.90;;;;;;4926259;29;20079;-71
2022/04/07 03:51:35;;;;;;;;;;;8.70;99.90;;;;;;4914883;29;19929;-71
2022/04/07 03:54:07;;;;;;;;;;;8.60;99.90;;;;;;4930077;29;20256;-70
2022/04/07 03:56:38;;;;;;;;;;;8.60;99.90;;;;;;4934253;29;20297;-71
2022/04/07 03:59:10;;;;;;;;;;;8.60;99.90;;;;;;4934040;29;20294;-71
2022/04/07 04:01:39;;;;;;;;;;;8.60;99.90;;;;;;4932549;29;19930;-71
2022/04/07 04:04:11;;;;;;;;;;;8.50;99.90;;;;;;4940424;29;19922;-71
2022/04/07 04:06:37;;;;;;;;;;;8.60;99.90;;;;;;4934073;29;19923;-71
2022/04/07 04:09:04;;;;;;;;;;;8.50;99.90;;;;;;4930102;29;20360;-72
2022/04/07 04:11:36;;;;;;;;;;;8.50;99.90;;;;;;4917923;29;20290;-73
2022/04/07 04:14:07;;;;;;;;;;;8.50;99.90;;;;;;4935042;29;19926;-73
2022/04/07 04:16:34;;;;;;;;;;;8.40;99.90;;;;;;4927873;29;19930;-71
2022/04/07 04:19:01;;;;;;;;;;;8.40;99.90;;;;;;4942037;29;19922;-72
2022/04/07 04:21:32;;;;;;;;;;;8.30;99.90;;;;;;4927402;29;19923;-71
2022/04/07 04:24:04;;;;;;;;;;;8.30;99.90;;;;;;4947286;29;20399;-71
2022/04/07 04:26:36;;;;;;;;;;;8.30;99.90;;;;;;4933904;29;19930;-70
2022/04/07 04:29:08;;;;;;;;;;;8.30;99.90;;;;;;4935144;29;19977;-73
2022/04/07 04:31:35;;;;;;;;;;;8.20;99.90;;;;;;4918622;29;20013;-71
2022/04/07 04:34:01;;;;;;;;;;;8.20;99.90;;;;;;4945362;29;19923;-71
2022/04/07 04:36:28;;;;;;;;;;;8.20;99.90;;;;;;4922459;29;19922;-71
2022/04/07 04:38:55;;;;;;;;;;;8.20;99.90;;;;;;4942112;29;19929;-71
2022/04/07 04:41:27;;;;;;;;;;;8.20;99.90;;;;;;4934682;28;20374;-71
2022/04/07 04:44:00;;;;;;;;;;;8.10;99.90;;;;;;4933501;29;19929;-71
2022/04/07 04:46:27;;;;;;;;;;;8.10;99.90;;;;;;4931404;29;20382;-71
2022/04/07 04:48:59;;;;;;;;;;;8.10;99.90;;;;;;4909645;29;19977;-71
2022/04/07 04:51:30;;;;;;;;;;;8.10;99.90;;;;;;4922304;29;19923;-71
2022/04/07 04:54:02;;;;;;;;;;;8.10;99.90;;;;;;4927269;29;19922;-71
2022/04/07 04:56:33;;;;;;;;;;;8.10;99.90;;;;;;4937870;29;19945;-71
2022/04/07 04:59:05;;;;;;;;;;;8.20;99.90;;;;;;4932802;29;19926;-71
2022/04/07 05:01:37;;;;;;;;;;;8.20;99.90;;;;;;4928376;29;19934;-71
2022/04/07 05:04:03;;;;;;;;;;;8.20;99.90;;;;;;4928445;29;19934;-71
2022/04/07 05:06:35;;;;;;;;;;;8.10;99.90;;;;;;4931553;29;19922;-70
2022/04/07 05:09:02;;;;;;;;;;;8.10;99.90;;;;;;4921590;29;20017;-71
2022/04/07 05:11:28;;;;;;;;;;;8.10;99.90;;;;;;4919735;29;19923;-71
2022/04/07 05:14:00;;;;;;;;;;;8.20;99.90;;;;;;4928021;29;19926;-71
2022/04/07 05:16:32;;;;;;;;;;;8.20;99.90;;;;;;4941470;29;20455;-72
2022/04/07 05:19:04;;;;;;;;;;;8.20;99.90;;;;;;4920742;29;19931;-71
2022/04/07 05:21:35;;;;;;;;;;;8.30;99.90;;;;;;4931693;29;19923;-71
2022/04/07 05:24:07;;;;;;;;;;;8.30;99.90;;;;;;4937773;29;19929;-70
2022/04/07 05:26:39;;;;;;;;;;;8.30;99.90;;;;;;4942017;29;19922;-71
2022/04/07 05:29:10;;;;;;;;;;;8.30;99.90;;;;;;4936539;28;19926;-71
2022/04/07 05:31:42;;;;;;;;;;;8.30;99.90;;;;;;4932622;28;19966;-71
2022/04/07 05:34:08;;;;;;;;;;;8.40;99.90;;;;;;4935491;29;19930;-71
2022/04/07 05:36:42;;;;;;;;;;;8.40;99.90;;;;;;4927496;29;20026;-72
2022/04/07 05:39:13;;;;;;;;;;;8.40;99.90;;;;;;4942959;29;20393;-71
2022/04/07 05:41:45;;;;;;;;;;;8.40;99.90;;;;;;4920956;29;19933;-71
2022/04/07 05:44:17;;;;;;;;;;;8.40;99.90;;;;;;4935480;29;19928;-71
2022/04/07 05:46:44;;;;;;;;;;;8.50;99.90;;;;;;4938428;29;19926;-71
2022/04/07 05:49:15;;;;;;;;;;;8.40;99.90;;;;;;4937140;29;19923;-71
2022/04/07 05:51:50;;;;;;;;;;;8.40;99.90;;;;;;4926860;29;19949;-70
2022/04/07 05:54:22;;;;;;;;;;;8.50;99.90;;;;;;4933590;29;19922;-71
2022/04/07 05:56:54;;;;;;;;;;;8.50;99.90;;;;;;4924402;29;19926;-71
2022/04/07 05:59:25;;;;;;;;;;;8.50;99.90;;;;;;4934735;29;19927;-70
2022/04/07 06:01:57;;;;;;;;;;;8.50;99.90;;;;;;4910290;29;19926;-71
2022/04/07 06:04:28;;;;;;;;;;;8.50;99.90;;;;;;4930209;29;19973;-71
2022/04/07 06:07:00;;;;;;;;;;;8.60;99.90;;;;;;4935118;29;19929;-71
2022/04/07 06:09:27;;;;;;;;;;;8.70;99.90;;;;;;4916796;29;19927;-71
2022/04/07 06:11:56;;;;;;;;;;;8.80;99.90;;;;;;4927439;29;20010;-71
2022/04/07 06:14:27;;;;;;;;;;;8.90;99.90;;;;;;4930270;29;20326;-71
2022/04/07 06:17:01;;;;;;;;;;;8.90;99.90;;;;;;4931392;29;20384;-73
2022/04/07 06:19:33;;;;;;;;;;;8.90;99.90;;;;;;4924435;29;20633;-71
2022/04/07 06:22:01;;;;;;;;;;;9.00;99.90;;;;;;4940849;28;20021;-70
2022/04/07 06:24:33;;;;;;;;;;;9.10;99.90;;;;;;4933248;29;20321;-71
2022/04/07 06:27:05;;;;;;;;;;;9.10;99.90;;;;;;4937893;29;20485;-70
2022/04/07 06:29:31;;;;;;;;;;;9.20;99.90;;;;;;4917614;29;19923;-70
2022/04/07 06:31:58;;;;;;;;;;;9.20;99.90;;;;;;4909974;29;19987;-72
2022/04/07 06:34:30;;;;;;;;;;;9.20;99.90;;;;;;4915266;29;20300;-70
2022/04/07 06:37:02;;;;;;;;;;;9.30;99.90;;;;;;4932753;29;19923;-71
2022/04/07 06:39:33;;;;;;;;;;;9.40;99.90;;;;;;4931668;29;20007;-71
2022/04/07 06:42:05;;;;;;;;;;;9.40;99.90;;;;;;4916938;29;19922;-70
2022/04/07 06:44:32;;;;;;;;;;;9.50;99.90;;;;;;4923264;29;19923;-71
2022/04/07 06:46:58;;;;;;;;;;;9.40;99.90;;;;;;4924398;29;20019;-71
2022/04/07 06:49:30;;;;;;;;;;;9.50;99.90;;;;;;4932452;29;19927;-71
2022/04/07 06:51:57;;;;;;;;;;;9.60;99.90;;;;;;4933722;29;19980;-71
2022/04/07 06:54:23;;;;;;;;;;;9.70;99.90;;;;;;4940984;29;19938;-71
2022/04/07 06:56:50;;;;;;;;;;;9.70;99.90;;;;;;4933303;29;19926;-71
2022/04/07 06:59:22;;;;;;;;;;;9.80;99.90;;;;;;4935038;29;20021;-71
2022/04/07 07:01:48;;;;;;;;;;;9.80;99.90;;;;;;4927476;29;19929;-71
2022/04/07 07:04:15;;;;;;;;;;;9.90;99.90;;;;;;4945620;29;19922;-71
2022/04/07 07:06:41;;;;;;;;;;;10.00;99.90;;;;;;4936341;29;19922;-71
2022/04/07 07:09:13;;;;;;;;;;;10.00;99.90;;;;;;4935191;29;19929;-71
2022/04/07 07:11:45;;;;;;;;;;;10.10;99.90;;;;;;4913896;29;19923;-71
2022/04/07 07:14:17;;;;;;;;;;;10.10;99.90;;;;;;4938544;29;19922;-71
2022/04/07 07:16:44;;;;;;;;;;;10.20;99.90;;;;;;4947538;29;20465;-71
2022/04/07 07:19:17;;;;;;;;;;;10.20;99.90;;;;;;4930808;29;19986;-71
2022/04/07 07:21:49;;;;;;;;;;;10.30;99.90;;;;;;4930632;29;19923;-71
2022/04/07 07:24:21;;;;;;;;;;;10.40;99.90;;;;;;4942215;29;19957;-71
2022/04/07 07:26:52;;;;;;;;;;;10.50;99.90;;;;;;4934321;29;19929;-71
2022/04/07 07:29:24;;;;;;;;;;;10.50;99.90;;;;;;4936134;29;19926;-71
2022/04/07 07:31:56;;;;;;;;;;;10.60;99.90;;;;;;4929135;29;20305;-71
2022/04/07 07:34:27;;;;;;;;;;;10.60;99.90;;;;;;4937173;29;19927;-71
2022/04/07 07:36:59;;;;;;;;;;;10.80;99.90;;;;;;4927138;29;20298;-71
2022/04/07 07:39:31;;;;;;;;;;;10.80;99.90;;;;;;4934790;29;20021;-71
2022/04/07 07:42:03;;;;;;;;;;;10.80;99.90;;;;;;4931259;29;19927;-71
2022/04/07 07:44:30;;;;;;;;;;;10.90;99.90;;;;;;4937574;29;19922;-71
2022/04/07 07:47:02;;;;;;;;;;;11.00;99.90;;;;;;4933520;29;19933;-71
2022/04/07 07:49:33;;;;;;;;;;;11.10;99.90;;;;;;4917010;29;20433;-70
2022/04/07 07:52:05;;;;;;;;;;;11.00;99.90;;;;;;4929463;29;19923;-71
2022/04/07 07:54:32;;;;;;;;;;;10.90;99.90;;;;;;4954406;29;19929;-70
2022/04/07 07:57:03;;;;;;;;;;;10.90;99.90;;;;;;4940870;29;19922;-71
2022/04/07 07:59:35;;;;;;;;;;;11.00;99.90;;;;;;4938434;29;19929;-71
2022/04/07 08:02:02;;;;;;;;;;;11.10;99.90;;;;;;4932931;29;19931;-71
2022/04/07 08:04:34;;;;;;;;;;;11.20;99.90;;;;;;4921474;29;20285;-71
2022/04/07 08:07:07;;;;;;;;;;;11.30;99.90;;;;;;4936771;29;20021;-71
2022/04/07 08:09:39;;;;;;;;;;;11.30;99.90;;;;;;4935714;29;19958;-71
2022/04/07 08:12:05;;;;;;;;;;;11.40;99.90;;;;;;4931968;29;19923;-71
2022/04/07 08:14:32;;;;;;;;;;;11.40;99.90;;;;;;4928313;29;19922;-71
2022/04/07 08:17:04;;;;;;;;;;;11.40;99.90;;;;;;4939920;29;19922;-71
2022/04/07 08:19:30;;;;;;;;;;;11.50;99.90;;;;;;4939762;29;19941;-71
2022/04/07 08:21:57;;;;;;;;;;;11.70;99.90;;;;;;4937198;29;19923;-70
2022/04/07 08:24:29;;;;;;;;;;;11.80;99.90;;;;;;4943114;29;19927;-71
2022/04/07 08:27:06;;;;;;;;;;;11.80;99.90;;;;;;4935488;29;19929;-70
2022/04/07 08:29:38;;;;;;;;;;;11.80;99.90;;;;;;4939180;29;19954;-70
2022/04/07 08:32:05;;;;;;;;;;;11.80;99.90;;;;;;4934522;29;20279;-71
2022/04/07 08:34:32;;;;;;;;;;;11.80;99.90;;;;;;4942393;29;20290;-71
2022/04/07 08:37:04;;;;;;;;;;;11.80;99.90;;;;;;4935549;29;19923;-71
2022/04/07 08:39:35;;;;;;;;;;;11.90;99.90;;;;;;4922683;29;19929;-71
2022/04/07 08:42:04;;;;;;;;;;;11.90;99.90;;;;;;4936360;29;19929;-71
2022/04/07 08:44:35;;;;;;;;;;;12.00;99.90;;;;;;4940720;29;19922;-71
2022/04/07 08:47:07;;;;;;;;;;;12.10;99.90;;;;;;4946889;29;19945;-71
2022/04/07 08:49:39;;;;;;;;;;;12.20;99.90;;;;;;4945538;28;19929;-71
2022/04/07 08:52:08;;;;;;;;;;;12.30;99.90;;;;;;4937067;29;19973;-70
2022/04/07 08:54:39;;;;;;;;;;;12.30;99.90;;;;;;4950313;29;19949;-71
2022/04/07 08:57:11;;;;;;;;;;;12.30;99.90;;;;;;4937878;29;19926;-71
2022/04/07 08:59:38;;;;;;;;;;;12.40;99.90;;;;;;4935770;29;19923;-71
2022/04/07 09:02:10;;;;;;;;;;;12.50;99.90;;;;;;4925584;29;19977;-71
2022/04/07 09:04:42;;;;;;;;;;;12.50;99.90;;;;;;4915160;29;19929;-71
2022/04/07 09:07:14;;;;;;;;;;;12.60;99.90;;;;;;4934784;29;19923;-72
2022/04/07 09:09:46;;;;;;;;;;;12.80;99.90;;;;;;4940165;29;19929;-71
2022/04/07 09:12:22;;;;;;;;;;;12.90;99.90;;;;;;4934980;29;19968;-70
2022/04/07 09:14:55;;;;;;;;;;;13.10;99.90;;;;;;4936980;29;19922;-71
2022/04/07 09:17:30;;;;;;;;;;;13.10;99.90;;;;;;4917296;29;20378;-71
2022/04/07 09:19:56;;;;;;;;;;;13.10;99.90;;;;;;4936506;29;19923;-71
2022/04/07 09:22:33;;;;;;;;;;;13.20;99.90;;;;;;4934931;29;20290;-71
2022/04/07 09:25:05;;;;;;;;;;;13.20;99.90;;;;;;4936391;29;19923;-71
2022/04/07 09:27:32;;;;;;;;;;;13.00;99.90;;;;;;4914620;29;19942;-71
2022/04/07 09:30:08;;;;;;;;;;;12.90;99.90;;;;;;4929693;29;19926;-71
2022/04/07 09:32:43;;;;;;;;;;;12.80;99.90;;;;;;4928997;29;19926;-71
2022/04/07 09:35:11;;;;;;;;;;;12.90;99.90;;;;;;4938227;29;19926;-71
2022/04/07 09:37:42;;;;;;;;;;;12.90;99.90;;;;;;4923691;29;19933;-71
2022/04/07 09:40:09;;;;;;;;;;;12.90;99.90;;;;;;4930006;29;19931;-71
2022/04/07 09:42:36;;;;;;;;;;;13.00;99.90;;;;;;4936014;29;19929;-71
2022/04/07 09:45:12;;;;;;;;;;;13.00;99.90;;;;;;4944477;29;19922;-71
2022/04/07 09:47:43;;;;;;;;;;;12.90;99.90;;;;;;4929277;29;19927;-70
2022/04/07 09:50:20;;;;;;;;;;;12.80;99.90;;;;;;4921875;29;19923;-71
2022/04/07 09:53:00;;;;;;;;;;;13.00;99.90;;;;;;4935144;29;19922;-71
2022/04/07 09:55:36;;;;;;;;;;;13.20;99.90;;;;;;4943658;29;19922;-70
2022/04/07 09:58:08;;;;;;;;;;;13.20;99.90;;;;;;4938385;28;19923;-71
2022/04/07 10:00:40;;;;;;;;;;;13.40;99.90;;;;;;4933864;29;19930;-71
2022/04/07 10:03:08;;;;;;;;;;;13.60;99.90;;;;;;4932308;29;20401;-71
2022/04/07 10:05:35;;;;;;;;;;;13.60;99.90;;;;;;4918782;29;19923;-71
2022/04/07 10:08:07;;;;;;;;;;;13.70;99.90;;;;;;4919918;29;20414;-70
2022/04/07 10:10:39;;;;;;;;;;;13.50;99.90;;;;;;4920808;29;20303;-71
2022/04/07 10:13:11;;;;;;;;;;;13.40;99.90;;;;;;4934526;29;19922;-71
2022/04/07 10:15:38;;;;;;;;;;;13.50;99.90;;;;;;4942747;29;19927;-71
2022/04/07 10:18:08;;;;;;;;;;;13.40;99.90;;;;;;4929978;29;20493;-71
2022/04/07 10:20:44;;;;;;;;;;;13.50;99.90;;;;;;4915942;29;20026;-71
2022/04/07 10:23:25;;;;;;;;;;;13.60;99.90;;;;;;4932323;29;20022;-71
2022/04/07 10:25:58;;;;;;;;;;;13.70;99.90;;;;;;4920594;29;19926;-71
2022/04/07 10:28:30;;;;;;;;;;;13.60;99.90;;;;;;4926852;29;19923;-70
2022/04/07 10:31:11;;;;;;;;;;;13.50;99.90;;;;;;4933052;29;19931;-71
2022/04/07 10:33:41;;;;;;;;;;;13.70;99.90;;;;;;4924434;29;19944;-71
2022/04/07 10:36:16;;;;;;;;;;;13.80;99.90;;;;;;4930987;29;19978;-71
2022/04/07 10:38:45;;;;;;;;;;;13.90;99.90;;;;;;4933511;29;19931;-70
2022/04/07 10:41:35;;;;;;;;;;;13.90;99.90;;;;;;4940075;29;20313;-71
2022/04/07 10:44:15;;;;;;;;;;;13.80;99.90;;;;;;4932939;29;19923;-71
2022/04/07 10:46:46;;;;;;;;;;;13.80;99.90;;;;;;4937711;29;19923;-71
2022/04/07 10:49:21;;;;;;;;;;;14.00;99.90;;;;;;4923000;29;19923;-71
2022/04/07 10:51:53;;;;;;;;;;;13.80;99.90;;;;;;4914617;29;20021;-70
2022/04/07 10:54:21;;;;;;;;;;;13.70;99.90;;;;;;4932538;29;19927;-71
2022/04/07 10:56:56;;;;;;;;;;;13.60;99.90;;;;;;4912070;29;19933;-71
2022/04/07 10:59:28;;;;;;;;;;;13.50;99.90;;;;;;4923909;29;19922;-71
2022/04/07 11:02:07;;;;;;;;;;;13.50;99.90;;;;;;4929146;29;19926;-71
2022/04/07 11:05:04;;;;;;;;;;;13.50;99.90;;;;;;4935126;29;19927;-71
2022/04/07 11:07:37;;;;;;;;;;;13.50;99.90;;;;;;4926100;29;19929;-71
2022/04/07 11:10:05;;;;;;;;;;;13.60;99.90;;;;;;4932676;29;19922;-71
2022/04/07 11:12:38;;;;;;;;;;;13.70;99.90;;;;;;4926466;29;19930;-71
2022/04/07 11:15:17;;;;;;;;;;;13.80;99.90;;;;;;4932410;29;20534;-71
2022/04/07 11:17:46;;;;;;;;;;;13.80;99.90;;;;;;4934058;29;19926;-71
2022/04/07 11:20:25;;;;;;;;;;;13.80;99.90;;;;;;4936934;29;19929;-70
2022/04/07 11:22:52;;;;;;;;;;;13.80;99.90;;;;;;4936978;29;19932;-70
2022/04/07 11:25:40;;;;;;;;;;;13.90;99.90;;;;;;4937042;29;19931;-71
2022/04/07 11:28:13;;;;;;;;;;;14.00;99.90;;;;;;4931857;29;19945;-71
2022/04/07 11:30:48;;;;;;;;;;;14.20;99.90;;;;;;4929579;29;19923;-71
2022/04/07 11:36:00;;;;;;;;;;;14.00;99.90;;;;;;4932943;29;20394;-71
2022/04/07 11:38:49;;;;;;;;;;;14.10;99.90;;;;;;4926153;29;19929;-71
2022/04/07 11:41:20;;;;;;;;;;;14.10;99.90;;;;;;4931060;29;19933;-72
2022/04/07 11:43:52;;;;;;;;;;;14.00;99.90;;;;;;4922660;29;19972;-71
2022/04/07 11:46:25;;;;;;;;;;;13.90;99.90;;;;;;4934029;29;19927;-71
2022/04/07 11:48:54;;;;;;;;;;;14.10;99.90;;;;;;4929236;29;19922;-71
2022/04/07 11:51:26;;;;;;;;;;;14.20;99.90;;;;;;4912057;29;20457;-71
2022/04/07 11:53:58;;;;;;;;;;;14.00;99.90;;;;;;4931934;29;19930;-71
2022/04/07 11:56:32;;;;;;;;;;;13.90;99.90;;;;;;4928419;29;19927;-71
2022/04/07 11:58:59;;;;;;;;;;;13.80;99.90;;;;;;4928021;29;19938;-71
2022/04/07 12:01:28;;;;;;;;;;;13.80;99.90;;;;;;4932892;28;19945;-71
2022/04/07 12:04:02;;;;;;;;;;;13.90;99.90;;;;;;4927077;29;20510;-71
2022/04/07 12:06:34;;;;;;;;;;;14.00;99.90;;;;;;4930672;29;20386;-71
2022/04/07 12:09:07;;;;;;;;;;;14.00;99.90;;;;;;4932135;29;20293;-71
2022/04/07 12:11:35;;;;;;;;;;;14.00;99.90;;;;;;4941426;28;20561;-71
2022/04/07 12:14:11;;;;;;;;;;;13.90;99.90;;;;;;4936639;29;19926;-71
2022/04/07 12:16:48;;;;;;;;;;;13.90;99.90;;;;;;4926970;28;19930;-71
2022/04/07 12:19:19;;;;;;;;;;;14.00;99.90;;;;;;4943899;29;19922;-71
2022/04/07 12:21:58;;;;;;;;;;;13.80;99.90;;;;;;4913932;29;20326;-71
2022/04/07 12:24:30;;;;;;;;;;;13.90;99.90;;;;;;4917793;29;19922;-71
2022/04/07 12:27:04;;;;;;;;;;;13.90;99.90;;;;;;4931962;29;19927;-71
2022/04/07 12:29:31;;;;;;;;;;;14.00;99.90;;;;;;4938110;29;20338;-70
2022/04/07 12:32:06;;;;;;;;;;;13.90;99.90;;;;;;4914530;29;19962;-71
2022/04/07 12:34:50;;;;;;;;;;;13.90;99.90;;;;;;4919168;29;19945;-71
2022/04/07 12:37:36;;;;;;;;;;;14.00;99.90;;;;;;4923927;29;20011;-71
2022/04/07 12:40:14;;;;;;;;;;;14.00;99.90;;;;;;4932606;29;19923;-71
2022/04/07 12:42:53;;;;;;;;;;;13.80;99.90;;;;;;4926894;29;19973;-70
2022/04/07 12:45:25;;;;;;;;;;;13.60;99.90;;;;;;4945283;29;19922;-71
2022/04/07 12:48:17;;;;;;;;;;;13.50;99.90;;;;;;4936235;29;20279;-71
2022/04/07 12:50:49;;;;;;;;;;;13.40;99.90;;;;;;4943148;28;19926;-71
2022/04/07 12:53:26;;;;;;;;;;;13.30;99.90;;;;;;4932953;29;19922;-71
2022/04/07 12:56:17;;;;;;;;;;;13.10;99.90;;;;;;4935535;29;19929;-71
2022/04/07 12:58:58;;;;;;;;;;;13.00;99.90;;;;;;4916836;29;19923;-71
2022/04/07 13:01:30;;;;;;;;;;;12.90;99.90;;;;;;4922618;29;20390;-71
2022/04/07 13:04:04;;;;;;;;;;;12.80;99.90;;;;;;4941474;29;19929;-71
2022/04/07 13:06:32;;;;;;;;;;;12.70;99.90;;;;;;4932585;29;19931;-71
2022/04/07 13:08:58;;;;;;;;;;;12.70;99.90;;;;;;4922508;29;19929;-71
2022/04/07 13:11:31;;;;;;;;;;;12.80;99.90;;;;;;4930036;29;19996;-71
2022/04/07 13:14:07;;;;;;;;;;;12.80;99.90;;;;;;4934417;29;19962;-71
2022/04/07 13:16:39;;;;;;;;;;;12.70;99.90;;;;;;4947471;29;20341;-71
2022/04/07 13:19:11;;;;;;;;;;;12.60;99.90;;;;;;4928492;29;20293;-71
2022/04/07 13:21:43;;;;;;;;;;;12.60;99.90;;;;;;4917621;29;19942;-71
2022/04/07 13:24:09;;;;;;;;;;;12.50;99.90;;;;;;4938197;29;19931;-70
2022/04/07 13:26:43;;;;;;;;;;;12.40;99.90;;;;;;4916360;29;19927;-71
2022/04/07 13:29:15;;;;;;;;;;;12.30;99.90;;;;;;4932183;29;20004;-70
2022/04/07 13:31:46;;;;;;;;;;;12.30;99.90;;;;;;4932828;29;19922;-71
2022/04/07 13:34:14;;;;;;;;;;;12.30;99.90;;;;;;4932663;29;19927;-70
2022/04/07 13:36:45;;;;;;;;;;;12.30;99.90;;;;;;4935329;29;19946;-70
2022/04/07 13:39:17;;;;;;;;;;;12.30;99.90;;;;;;4936534;29;20025;-71
2022/04/07 13:41:49;;;;;;;;;;;12.30;99.90;;;;;;4933332;29;19933;-71
2022/04/07 13:44:15;;;;;;;;;;;12.20;99.90;;;;;;4936883;29;19930;-71
2022/04/07 13:46:47;;;;;;;;;;;12.20;99.90;;;;;;4933687;29;19927;-71
2022/04/07 13:49:19;;;;;;;;;;;12.10;99.90;;;;;;4934961;29;19926;-71
2022/04/07 13:51:50;;;;;;;;;;;12.10;99.90;;;;;;4927327;29;19930;-71
2022/04/07 13:54:17;;;;;;;;;;;12.10;99.90;;;;;;4940776;29;20389;-71
2022/04/07 13:56:48;;;;;;;;;;;12.10;99.90;;;;;;4939152;28;19926;-71
2022/04/07 13:59:15;;;;;;;;;;;12.10;99.90;;;;;;4936066;29;19981;-71
2022/04/07 14:01:42;;;;;;;;;;;12.10;99.90;;;;;;4928404;29;19926;-71
2022/04/07 14:04:09;;;;;;;;;;;12.10;99.90;;;;;;4950333;28;19931;-70
2022/04/07 14:06:42;;;;;;;;;;;12.10;99.90;;;;;;4931303;29;19927;-71
2022/04/07 14:09:12;;;;;;;;;;;12.10;99.90;;;;;;4930241;29;19954;-71
2022/04/07 14:11:43;;;;;;;;;;;12.10;99.90;;;;;;4924023;29;19949;-71
2022/04/07 14:14:15;;;;;;;;;;;12.10;99.90;;;;;;4927541;29;19929;-71
2022/04/07 14:16:47;;;;;;;;;;;12.10;99.90;;;;;;4927621;29;20051;-71
2022/04/07 14:19:18;;;;;;;;;;;12.10;99.90;;;;;;4928819;29;19954;-71
2022/04/07 14:21:50;;;;;;;;;;;12.10;99.90;;;;;;4931155;29;19927;-71
2022/04/07 14:24:22;;;;;;;;;;;12.10;99.90;;;;;;4930808;29;19929;-71
2022/04/07 14:26:54;;;;;;;;;;;12.10;99.90;;;;;;4929972;29;19927;-71
2022/04/07 14:29:25;;;;;;;;;;;12.10;99.90;;;;;;4914116;29;19930;-71
2022/04/07 14:31:52;;;;;;;;;;;12.10;99.90;;;;;;4924070;29;19923;-71
2022/04/07 14:34:24;;;;;;;;;;;12.00;99.90;;;;;;4920751;29;19931;-71
2022/04/07 14:36:50;;;;;;;;;;;12.10;99.90;;;;;;4925931;29;19922;-71
2022/04/07 14:39:18;;;;;;;;;;;12.10;99.90;;;;;;4958494;28;19966;-71
2022/04/07 14:41:50;;;;;;;;;;;12.10;99.90;;;;;;4925339;29;19926;-71
2022/04/07 14:44:17;;;;;;;;;;;12.10;99.90;;;;;;4910780;29;19958;-71
2022/04/07 14:46:43;;;;;;;;;;;12.10;99.90;;;;;;4912979;29;19933;-71
2022/04/07 14:49:11;;;;;;;;;;;12.20;99.90;;;;;;4926075;29;19923;-71